DAL8485 KJFK-VNKT
Flight info
| Callsign | DAL8485 |
|---|---|
| Flight time | N/A |
| Altitude | 31000 |
| Route | BDR DCT FOXWD Q439 PQI DCT YZV DCT CYDP/M084F330 DCT 6255N DCT BGSF DCT 7330N DCT 75N000E/M084F350 DCT LATEN/K0904F350 DCT NRM M168 UMTIT/K0902F370 M168 BIBLI DCT KTU DCT BLH W333 ATA/K0885S1130 DCT HTN/N0482F390 DCT KT540 DCT KT538 DCT KT536 DCT KT534 DCT KT532 DCT KT530 DCT KT528 DCT KT524 DCT KT522 DCT KT520 |
| Aircraft | B772/H-SDE2E3FGHIJ5LORVWXY/LB1D1 |
Departure
| Time | 2026-05-08 04:14 |
|---|---|
| Airport | John F. Kennedy International Airport (KJFK) |
Arrival
| Time | N/A |
|---|---|
| Airport | Tribhuvan International Airport (VNKT) |
| Time | Latitude | Longitude | Altitude | Speed | Heading |
|---|---|---|---|---|---|
| 2026-05-08 04:11 | 40.63396 | -73.77795 | 18 ft | 23 kts | 212° |
| 2026-05-08 04:11 | 40.63302 | -73.77782 | 18 ft | 17 kts | 122° |
| 2026-05-08 04:12 | 40.63227 | -73.77624 | 18 ft | 23 kts | 121° |
| 2026-05-08 04:12 | 40.63133 | -73.77414 | 18 ft | 29 kts | 120° |
| 2026-05-08 04:12 | 40.63023 | -73.77165 | 18 ft | 24 kts | 120° |
| 2026-05-08 04:12 | 40.62937 | -73.77107 | 18 ft | 13 kts | 196° |
| 2026-05-08 04:13 | 40.62848 | -73.77162 | 18 ft | 10 kts | 210° |
| 2026-05-08 04:13 | 40.62817 | -73.77200 | 18 ft | 6 kts | 262° |
| 2026-05-08 04:13 | 40.62844 | -73.77277 | 18 ft | 11 kts | 301° |
| 2026-05-08 04:13 | 40.62946 | -73.77498 | 18 ft | 59 kts | 300° |
| 2026-05-08 04:14 | 40.63269 | -73.78220 | 18 ft | 124 kts | 301° |
| 2026-05-08 04:14 | 40.63818 | -73.79411 | 29 ft | 176 kts | 301° |
| 2026-05-08 04:14 | 40.64464 | -73.80868 | 464 ft | 191 kts | 300° |
| 2026-05-08 04:14 | 40.65123 | -73.82438 | 1224 ft | 193 kts | 298° |
| 2026-05-08 04:15 | 40.65842 | -73.83811 | 1792 ft | 184 kts | 321° |
| 2026-05-08 04:15 | 40.66989 | -73.84552 | 1977 ft | 196 kts | 349° |
| 2026-05-08 04:15 | 40.68382 | -73.84366 | 2488 ft | 202 kts | 12° |
| 2026-05-08 04:15 | 40.69759 | -73.83898 | 3049 ft | 211 kts | 12° |
| 2026-05-08 04:16 | 40.71195 | -73.83411 | 3495 ft | 225 kts | 12° |
| 2026-05-08 04:16 | 40.72705 | -73.82697 | 4086 ft | 236 kts | 31° |
| 2026-05-08 04:16 | 40.73898 | -73.81143 | 4516 ft | 254 kts | 50° |
| 2026-05-08 04:16 | 40.74983 | -73.79206 | 5006 ft | 266 kts | 52° |
| 2026-05-08 04:17 | 40.76081 | -73.77206 | 5630 ft | 273 kts | 52° |
| 2026-05-08 04:17 | 40.77188 | -73.75185 | 6297 ft | 277 kts | 52° |
| 2026-05-08 04:17 | 40.78332 | -73.73094 | 6934 ft | 283 kts | 52° |
| 2026-05-08 04:17 | 40.79482 | -73.70991 | 7621 ft | 286 kts | 52° |
| 2026-05-08 04:18 | 40.80647 | -73.68861 | 8243 ft | 291 kts | 51° |
| 2026-05-08 04:18 | 40.81849 | -73.66661 | 8863 ft | 295 kts | 51° |
| 2026-05-08 04:18 | 40.83041 | -73.64477 | 9505 ft | 298 kts | 51° |
| 2026-05-08 04:18 | 40.84261 | -73.62241 | 10080 ft | 303 kts | 50° |
| 2026-05-08 04:19 | 40.85500 | -73.59969 | 10664 ft | 308 kts | 50° |
| 2026-05-08 04:19 | 40.86766 | -73.57645 | 11201 ft | 314 kts | 50° |
| 2026-05-08 04:19 | 40.88071 | -73.55254 | 11444 ft | 331 kts | 50° |
| 2026-05-08 04:19 | 40.89438 | -73.52747 | 11734 ft | 348 kts | 50° |
| 2026-05-08 04:20 | 40.90884 | -73.50094 | 12013 ft | 364 kts | 50° |
| 2026-05-08 04:20 | 40.92395 | -73.47314 | 12333 ft | 379 kts | 50° |
| 2026-05-08 04:20 | 40.93954 | -73.44444 | 12641 ft | 394 kts | 51° |
| 2026-05-08 04:20 | 40.95586 | -73.41436 | 12957 ft | 407 kts | 51° |
| 2026-05-08 04:21 | 40.97249 | -73.38364 | 13326 ft | 413 kts | 51° |
| 2026-05-08 04:21 | 40.98930 | -73.35255 | 13708 ft | 418 kts | 50° |
| 2026-05-08 04:21 | 41.00610 | -73.32146 | 14089 ft | 422 kts | 51° |
| 2026-05-08 04:21 | 41.02324 | -73.28970 | 14453 ft | 426 kts | 51° |
| 2026-05-08 04:22 | 41.04059 | -73.25750 | 14776 ft | 432 kts | 52° |
| 2026-05-08 04:22 | 41.05805 | -73.22508 | 15152 ft | 436 kts | 52° |
| 2026-05-08 04:22 | 41.07572 | -73.19222 | 15569 ft | 438 kts | 52° |
| 2026-05-08 04:22 | 41.09344 | -73.15923 | 15895 ft | 443 kts | 52° |
| 2026-05-08 04:23 | 41.11130 | -73.12595 | 16193 ft | 448 kts | 52° |
| 2026-05-08 04:23 | 41.12940 | -73.09220 | 16495 ft | 453 kts | 53° |
| 2026-05-08 04:23 | 41.14775 | -73.05791 | 16876 ft | 456 kts | 53° |
| 2026-05-08 04:23 | 41.16612 | -73.02356 | 17222 ft | 460 kts | 53° |
| 2026-05-08 04:24 | 41.18480 | -72.98860 | 17520 ft | 464 kts | 53° |
| 2026-05-08 04:24 | 41.20351 | -72.95353 | 17838 ft | 469 kts | 53° |
| 2026-05-08 04:24 | 41.22230 | -72.91827 | 18137 ft | 473 kts | 53° |
| 2026-05-08 04:24 | 41.24135 | -72.88248 | 18473 ft | 477 kts | 53° |
| 2026-05-08 04:25 | 41.26038 | -72.84669 | 18763 ft | 481 kts | 54° |
| 2026-05-08 04:25 | 41.27972 | -72.81027 | 19074 ft | 484 kts | 53° |
| 2026-05-08 04:25 | 41.29930 | -72.77334 | 19415 ft | 487 kts | 54° |
| 2026-05-08 04:25 | 41.31877 | -72.73659 | 19709 ft | 490 kts | 54° |
| 2026-05-08 04:26 | 41.33828 | -72.69971 | 20021 ft | 493 kts | 53° |
| 2026-05-08 04:26 | 41.35827 | -72.66188 | 20353 ft | 495 kts | 54° |
| 2026-05-08 04:26 | 41.37807 | -72.62437 | 20674 ft | 498 kts | 53° |
| 2026-05-08 04:26 | 41.39774 | -72.58705 | 20963 ft | 501 kts | 53° |
| 2026-05-08 04:27 | 41.41777 | -72.54900 | 21231 ft | 504 kts | 54° |
| 2026-05-08 04:27 | 41.43812 | -72.51030 | 21514 ft | 507 kts | 53° |
| 2026-05-08 04:27 | 41.45832 | -72.47183 | 21813 ft | 509 kts | 53° |
| 2026-05-08 04:27 | 41.47847 | -72.43341 | 22088 ft | 512 kts | 54° |
| 2026-05-08 04:28 | 41.49912 | -72.39400 | 22347 ft | 515 kts | 54° |
| 2026-05-08 04:28 | 41.51965 | -72.35475 | 22599 ft | 518 kts | 54° |
| 2026-05-08 04:28 | 41.54006 | -72.31567 | 22837 ft | 522 kts | 54° |
| 2026-05-08 04:28 | 41.56088 | -72.27578 | 23022 ft | 526 kts | 55° |
| 2026-05-08 04:29 | 41.58175 | -72.23573 | 23271 ft | 528 kts | 54° |
| 2026-05-08 04:29 | 41.60287 | -72.19514 | 23572 ft | 529 kts | 55° |
| 2026-05-08 04:29 | 41.62368 | -72.15509 | 23802 ft | 533 kts | 54° |
| 2026-05-08 04:29 | 41.64479 | -72.11441 | 24031 ft | 535 kts | 54° |
| 2026-05-08 04:30 | 41.66592 | -72.07365 | 24295 ft | 536 kts | 54° |
| 2026-05-08 04:30 | 41.68735 | -72.03225 | 24582 ft | 538 kts | 55° |
| 2026-05-08 04:30 | 41.70861 | -71.99113 | 24808 ft | 540 kts | 54° |
| 2026-05-08 04:30 | 41.73007 | -71.94955 | 25010 ft | 543 kts | 55° |
| 2026-05-08 04:31 | 41.75146 | -71.90804 | 25258 ft | 545 kts | 54° |
| 2026-05-08 04:31 | 41.77317 | -71.86643 | 25509 ft | 546 kts | 51° |
| 2026-05-08 04:31 | 41.79762 | -71.82822 | 25724 ft | 546 kts | 42° |
| 2026-05-08 04:31 | 41.82625 | -71.79415 | 25903 ft | 545 kts | 33° |
| 2026-05-08 04:32 | 41.85720 | -71.76636 | 26058 ft | 542 kts | 24° |
| 2026-05-08 04:32 | 41.89070 | -71.74330 | 26277 ft | 540 kts | 20° |
| 2026-05-08 04:32 | 41.92463 | -71.72141 | 26613 ft | 539 kts | 19° |
| 2026-05-08 04:32 | 41.95841 | -71.69954 | 26953 ft | 539 kts | 19° |
| 2026-05-08 04:33 | 41.99202 | -71.67766 | 27192 ft | 541 kts | 19° |
| 2026-05-08 04:33 | 42.02628 | -71.65522 | 27377 ft | 543 kts | 19° |
| 2026-05-08 04:33 | 42.06059 | -71.63264 | 27623 ft | 545 kts | 19° |
| 2026-05-08 04:33 | 42.09485 | -71.61000 | 27844 ft | 547 kts | 19° |
| 2026-05-08 04:34 | 42.12897 | -71.58738 | 28046 ft | 549 kts | 19° |
| 2026-05-08 04:34 | 42.16331 | -71.56457 | 28203 ft | 552 kts | 20° |
| 2026-05-08 04:34 | 42.19783 | -71.54157 | 28407 ft | 553 kts | 20° |
| 2026-05-08 04:34 | 42.23272 | -71.51826 | 28662 ft | 554 kts | 19° |
| 2026-05-08 04:35 | 42.26716 | -71.49588 | 28857 ft | 555 kts | 18° |
| 2026-05-08 04:35 | 42.30229 | -71.47360 | 29004 ft | 557 kts | 18° |